Time;durP1;ratioP1;P1;durP2;ratioP2;P2;SDS_P1;SDS_P2;PMS_P1;PMS_P2;Temp;Humidity;BMP_temperature;BMP_pressure;BME280_temperature;BME280_humidity;BME280_pressure;Samples;Min_cycle;Max_cycle;Signal;HPM_P1;HPM_P2
2023/06/15 00:00:48;;;;;;;4.70;1.80;;;19.00;62.20;;;;;;5122548;27;45721;-70
2023/06/15 00:03:16;;;;;;;2.53;1.58;;;18.90;62.70;;;;;;5120048;27;45329;-69
2023/06/15 00:05:44;;;;;;;6.45;1.52;;;18.90;63.50;;;;;;5123691;27;45372;-69
2023/06/15 00:08:11;;;;;;;4.25;1.80;;;18.80;63.00;;;;;;5122792;27;45444;-69
2023/06/15 00:10:38;;;;;;;9.00;1.80;;;18.80;63.10;;;;;;5121134;27;45800;-69
2023/06/15 00:13:05;;;;;;;8.70;1.70;;;18.80;63.10;;;;;;5113513;27;45336;-69
2023/06/15 00:15:31;;;;;;;5.82;1.70;;;18.80;63.20;;;;;;5122377;27;45903;-68
2023/06/15 00:17:58;;;;;;;3.92;1.88;;;18.80;63.60;;;;;;5123340;27;45400;-69
2023/06/15 00:20:28;;;;;;;7.05;2.10;;;18.70;63.00;;;;;;5112630;27;45411;-69
2023/06/15 00:22:57;;;;;;;3.47;2.08;;;18.70;62.90;;;;;;5124347;27;45610;-69
2023/06/15 00:25:24;;;;;;;1.95;1.40;;;18.70;63.10;;;;;;5114386;27;45550;-69
2023/06/15 00:27:51;;;;;;;2.53;1.60;;;18.60;63.90;;;;;;5121895;27;47494;-69
2023/06/15 00:30:19;;;;;;;3.30;1.73;;;18.60;63.60;;;;;;5123207;27;45699;-68
2023/06/15 00:32:45;;;;;;;4.90;1.60;;;18.70;64.00;;;;;;5122293;27;45395;-69
2023/06/15 00:35:12;;;;;;;2.78;1.83;;;18.60;64.50;;;;;;5120278;27;45447;-69
2023/06/15 00:37:39;;;;;;;2.78;1.73;;;18.50;64.60;;;;;;5122538;27;46615;-68
2023/06/15 00:40:09;;;;;;;4.07;1.70;;;18.40;64.30;;;;;;5125585;27;45386;-69
2023/06/15 00:42:36;;;;;;;2.78;1.60;;;18.40;64.30;;;;;;5114943;27;45358;-69
2023/06/15 00:45:04;;;;;;;6.15;1.70;;;18.30;65.40;;;;;;5123012;27;45628;-69
2023/06/15 00:47:30;;;;;;;4.32;1.58;;;18.10;66.90;;;;;;5122795;27;46436;-69
2023/06/15 00:49:58;;;;;;;6.78;1.85;;;17.80;68.40;;;;;;5123261;27;46177;-69
2023/06/15 00:52:25;;;;;;;3.75;1.83;;;17.60;68.90;;;;;;5123062;27;45265;-68
2023/06/15 00:54:52;;;;;;;3.63;1.98;;;17.60;69.30;;;;;;5117750;27;45522;-68
2023/06/15 00:57:24;;;;;;;3.13;1.80;;;17.50;69.30;;;;;;5114460;27;47372;-69
2023/06/15 00:59:51;;;;;;;3.92;2.10;;;17.50;69.80;;;;;;5123689;27;45395;-69
2023/06/15 01:02:18;;;;;;;4.25;1.70;;;17.40;70.70;;;;;;5114578;27;45295;-69
2023/06/15 01:04:44;;;;;;;3.08;2.13;;;17.30;71.50;;;;;;5118783;27;45395;-68
2023/06/15 01:07:12;;;;;;;4.78;1.45;;;17.20;72.00;;;;;;5118844;27;47517;-69
2023/06/15 01:09:41;;;;;;;5.15;2.10;;;17.20;72.10;;;;;;5124963;27;45399;-68
2023/06/15 01:12:12;;;;;;;3.10;1.92;;;16.90;74.00;;;;;;5117088;27;45465;-69
2023/06/15 01:14:41;;;;;;;3.47;2.05;;;16.40;76.80;;;;;;5119088;27;45318;-69
2023/06/15 01:17:13;;;;;;;7.63;1.98;;;16.30;77.00;;;;;;5126038;27;47998;-69
2023/06/15 01:19:53;;;;;;;3.38;2.50;;;16.30;77.00;;;;;;5107820;27;45453;-69
2023/06/15 01:22:24;;;;;;;4.28;2.08;;;16.30;77.80;;;;;;5121777;27;45326;-69
2023/06/15 01:25:05;;;;;;;6.15;2.00;;;16.30;77.90;;;;;;5121194;27;45272;-69
2023/06/15 01:27:36;;;;;;;7.00;2.63;;;16.40;77.30;;;;;;5123459;27;45334;-68
2023/06/15 01:30:05;;;;;;;4.68;1.90;;;16.40;77.10;;;;;;5123950;27;45377;-68
2023/06/15 01:32:34;;;;;;;5.05;2.08;;;16.40;77.10;;;;;;5117676;27;45331;-70
2023/06/15 01:35:01;;;;;;;5.00;1.85;;;16.60;76.10;;;;;;5126135;27;45434;-69
2023/06/15 01:37:28;;;;;;;4.40;2.00;;;16.60;75.60;;;;;;5116840;27;48031;-68
2023/06/15 01:39:55;;;;;;;7.95;1.88;;;16.60;76.40;;;;;;5117362;27;45517;-69
2023/06/15 01:42:23;;;;;;;2.60;1.73;;;16.70;75.10;;;;;;5125614;27;45388;-69
2023/06/15 01:44:53;;;;;;;3.67;2.08;;;16.70;75.40;;;;;;5125246;27;45622;-69
2023/06/15 01:47:20;;;;;;;3.03;2.13;;;16.30;77.00;;;;;;5124998;27;48179;-69
2023/06/15 01:49:47;;;;;;;3.38;2.13;;;16.00;79.90;;;;;;5117800;27;45491;-68
2023/06/15 01:52:14;;;;;;;3.05;1.83;;;16.10;79.40;;;;;;5116529;27;45436;-69
2023/06/15 01:54:40;;;;;;;5.30;2.22;;;16.00;79.20;;;;;;5124402;27;45428;-69
2023/06/15 01:57:08;;;;;;;4.70;1.83;;;16.10;80.70;;;;;;5116945;27;46083;-68
2023/06/15 01:59:35;;;;;;;5.30;1.90;;;16.10;80.20;;;;;;5116870;27;45422;-69
2023/06/15 02:02:03;;;;;;;3.05;1.80;;;16.10;80.00;;;;;;5121374;27;45569;-69
2023/06/15 02:04:29;;;;;;;4.60;2.50;;;16.10;79.50;;;;;;5126272;27;45237;-68
2023/06/15 02:06:57;;;;;;;2.78;1.80;;;16.20;79.50;;;;;;5118341;27;45393;-69
2023/06/15 02:09:24;;;;;;;3.78;2.05;;;16.20;79.00;;;;;;5115394;27;45275;-69
2023/06/15 02:11:50;;;;;;;12.82;2.20;;;16.20;79.20;;;;;;5124251;27;45580;-68
2023/06/15 02:14:18;;;;;;;3.38;1.90;;;16.10;79.10;;;;;;5110135;27;45311;-69
2023/06/15 02:16:48;;;;;;;4.03;2.25;;;16.00;78.90;;;;;;5111542;27;46598;-69
2023/06/15 02:19:20;;;;;;;4.78;2.30;;;16.10;78.50;;;;;;5120862;27;45425;-68
2023/06/15 02:21:47;;;;;;;4.47;1.75;;;16.20;78.50;;;;;;5119013;27;45414;-68
2023/06/15 02:24:14;;;;;;;3.15;2.03;;;16.10;78.90;;;;;;5125058;27;45491;-68
2023/06/15 02:26:41;;;;;;;3.25;1.90;;;16.00;79.10;;;;;;5113394;27;46570;-69
2023/06/15 02:29:08;;;;;;;3.90;2.10;;;16.10;79.00;;;;;;5120301;27;45732;-69
2023/06/15 02:31:35;;;;;;;3.72;2.35;;;16.20;79.80;;;;;;5113292;27;45291;-69
2023/06/15 02:34:02;;;;;;;8.25;1.90;;;16.10;79.10;;;;;;5125462;27;45207;-69
2023/06/15 02:36:30;;;;;;;6.18;1.85;;;16.00;79.60;;;;;;5122354;27;47359;-68
2023/06/15 02:38:57;;;;;;;4.95;1.83;;;16.10;79.10;;;;;;5111432;27;46605;-68
2023/06/15 02:41:24;;;;;;;4.25;2.20;;;16.10;78.10;;;;;;5112218;27;45347;-68
2023/06/15 02:43:52;;;;;;;3.75;1.98;;;16.10;77.30;;;;;;5119312;27;45439;-69
2023/06/15 02:46:18;;;;;;;6.40;1.98;;;16.20;77.70;;;;;;5116181;27;48265;-68
2023/06/15 02:48:45;;;;;;;4.28;1.83;;;16.20;77.60;;;;;;5121445;27;45481;-68
2023/06/15 02:51:12;;;;;;;4.38;1.98;;;16.10;78.10;;;;;;5108293;27;45472;-69
2023/06/15 02:53:40;;;;;;;6.97;1.88;;;16.20;78.20;;;;;;5116793;27;45431;-68
2023/06/15 02:56:07;;;;;;;3.70;1.85;;;16.20;78.20;;;;;;5124983;27;46594;-68
2023/06/15 02:58:34;;;;;;;6.05;2.47;;;16.10;78.20;;;;;;5115875;27;45446;-69
2023/06/15 03:01:02;;;;;;;3.30;1.77;;;16.00;78.70;;;;;;5118271;27;45479;-68
2023/06/15 03:03:29;;;;;;;3.63;2.08;;;16.00;79.10;;;;;;5115674;27;45412;-69
2023/06/15 03:05:56;;;;;;;7.65;1.98;;;15.90;80.00;;;;;;5119423;27;46617;-68
2023/06/15 03:08:24;;;;;;;5.65;2.10;;;15.80;79.60;;;;;;5116096;27;45346;-68
2023/06/15 03:10:52;;;;;;;5.70;1.95;;;15.90;80.10;;;;;;5116481;27;45356;-68
2023/06/15 03:13:19;;;;;;;4.32;2.10;;;15.90;79.90;;;;;;5123534;27;45327;-70
2023/06/15 03:15:48;;;;;;;3.60;1.67;;;15.90;79.70;;;;;;5119351;27;48328;-68
2023/06/15 03:18:15;;;;;;;3.25;2.25;;;16.00;79.20;;;;;;5120558;27;45669;-69
2023/06/15 03:20:43;;;;;;;4.25;2.00;;;16.10;78.80;;;;;;5125050;27;45461;-69
2023/06/15 03:23:12;;;;;;;2.95;1.90;;;16.10;79.30;;;;;;5125059;27;45433;-69
2023/06/15 03:25:38;;;;;;;4.25;2.00;;;16.00;79.30;;;;;;5107607;27;48103;-69
2023/06/15 03:28:06;;;;;;;5.68;2.15;;;15.90;80.40;;;;;;5116632;27;45461;-70
2023/06/15 03:30:34;;;;;;;4.50;2.22;;;15.80;82.40;;;;;;5118481;27;45411;-68
2023/06/15 03:33:02;;;;;;;5.25;1.73;;;15.50;85.00;;;;;;5112399;27;45307;-69
2023/06/15 03:35:29;;;;;;;6.55;1.98;;;15.30;84.70;;;;;;5113614;27;46981;-68
2023/06/15 03:37:56;;;;;;;8.55;2.33;;;15.40;83.70;;;;;;5122198;27;45639;-69
2023/06/15 03:40:23;;;;;;;3.75;2.28;;;15.50;83.60;;;;;;5120658;27;45685;-69
2023/06/15 03:42:49;;;;;;;6.97;1.85;;;15.60;83.40;;;;;;5122120;27;45382;-68
2023/06/15 03:45:18;;;;;;;4.07;2.42;;;15.70;82.30;;;;;;5106020;27;47542;-70
2023/06/15 03:47:46;;;;;;;11.93;2.45;;;15.80;81.50;;;;;;5116061;27;45414;-68
2023/06/15 03:50:13;;;;;;;6.03;2.75;;;15.80;81.20;;;;;;5123892;27;45406;-69
2023/06/15 03:52:40;;;;;;;4.43;2.20;;;15.90;80.70;;;;;;5121663;27;45349;-69
2023/06/15 03:55:07;;;;;;;9.35;2.50;;;16.10;80.20;;;;;;5121850;27;45341;-68
2023/06/15 03:57:34;;;;;;;4.72;2.10;;;16.20;81.50;;;;;;5119623;27;45354;-68
2023/06/15 04:00:01;;;;;;;4.78;2.28;;;16.20;80.30;;;;;;5123225;27;45322;-69
2023/06/15 04:02:29;;;;;;;10.52;2.58;;;16.30;80.10;;;;;;5115784;27;45409;-69
2023/06/15 04:04:56;;;;;;;7.32;2.33;;;16.20;81.40;;;;;;5126434;27;45482;-68
2023/06/15 04:07:24;;;;;;;6.18;2.40;;;16.30;81.30;;;;;;5114560;27;45476;-69
2023/06/15 04:09:51;;;;;;;11.07;2.25;;;16.50;81.20;;;;;;5112872;27;45547;-69
2023/06/15 04:12:17;;;;;;;8.05;3.00;;;16.60;79.90;;;;;;5119631;27;45306;-68
2023/06/15 04:14:44;;;;;;;8.55;2.10;;;16.70;79.00;;;;;;5118051;27;46251;-69
2023/06/15 04:17:11;;;;;;;10.35;2.72;;;16.80;79.20;;;;;;5120341;27;45414;-68
2023/06/15 04:19:39;;;;;;;5.22;2.38;;;16.90;78.20;;;;;;5120482;27;45533;-69
2023/06/15 04:22:06;;;;;;;8.27;2.80;;;16.90;77.40;;;;;;5122836;27;45584;-69
2023/06/15 04:24:33;;;;;;;10.48;2.20;;;16.90;78.40;;;;;;5118641;27;46279;-69
2023/06/15 04:27:00;;;;;;;4.20;2.08;;;16.90;78.40;;;;;;5111311;27;45330;-69
2023/06/15 04:29:29;;;;;;;11.32;2.35;;;16.90;78.00;;;;;;5122174;27;45342;-69
2023/06/15 04:31:57;;;;;;;4.75;2.25;;;16.90;78.50;;;;;;5119752;27;45365;-68
2023/06/15 04:34:24;;;;;;;11.45;2.42;;;17.00;78.40;;;;;;5117374;27;46500;-68
2023/06/15 04:36:52;;;;;;;7.40;2.38;;;17.00;78.90;;;;;;5112724;27;45512;-69
2023/06/15 04:39:25;;;;;;;7.22;2.28;;;16.80;80.00;;;;;;5110696;27;45438;-68
2023/06/15 04:41:52;;;;;;;4.13;2.30;;;16.70;80.70;;;;;;5112492;27;45363;-69
2023/06/15 04:44:18;;;;;;;6.30;2.42;;;16.70;80.10;;;;;;5120732;27;46605;-68
2023/06/15 04:46:46;;;;;;;6.15;2.42;;;16.70;80.80;;;;;;5109728;27;46729;-69
2023/06/15 04:49:13;;;;;;;6.28;2.47;;;16.70;80.60;;;;;;5124978;27;45535;-67
2023/06/15 04:51:40;;;;;;;5.13;2.22;;;16.80;80.50;;;;;;5122052;27;45490;-68
2023/06/15 04:54:08;;;;;;;6.55;2.50;;;16.90;79.10;;;;;;5119337;27;45256;-68
2023/06/15 04:56:35;;;;;;;7.95;2.72;;;17.00;79.60;;;;;;5118034;27;45446;-68
2023/06/15 04:59:02;;;;;;;8.98;2.50;;;17.10;79.10;;;;;;5120033;27;45278;-69
2023/06/15 05:01:28;;;;;;;10.00;2.40;;;17.20;78.50;;;;;;5123460;27;45564;-68
2023/06/15 05:03:55;;;;;;;6.85;2.83;;;17.20;77.80;;;;;;5126520;27;47355;-70
2023/06/15 05:06:22;;;;;;;12.90;2.88;;;17.30;77.20;;;;;;5124936;27;45823;-69
2023/06/15 05:08:49;;;;;;;10.35;2.92;;;17.40;77.30;;;;;;5119652;27;45426;-67
2023/06/15 05:11:17;;;;;;;10.68;2.80;;;17.50;78.70;;;;;;5116810;27;45342;-69
2023/06/15 05:13:44;;;;;;;6.00;2.70;;;17.50;77.10;;;;;;5117225;27;45523;-69
2023/06/15 05:16:10;;;;;;;7.93;2.35;;;17.60;77.30;;;;;;5121280;27;45356;-68
2023/06/15 05:18:37;;;;;;;9.27;2.92;;;17.70;76.30;;;;;;5121864;27;45461;-69
2023/06/15 05:21:04;;;;;;;7.00;2.28;;;17.80;76.30;;;;;;5117118;27;45605;-69
2023/06/15 05:23:31;;;;;;;10.02;2.58;;;17.90;75.90;;;;;;5122570;27;45548;-69
2023/06/15 05:25:59;;;;;;;3.65;2.30;;;18.30;74.00;;;;;;5124062;27;45574;-68
2023/06/15 05:28:27;;;;;;;5.80;2.00;;;18.30;72.30;;;;;;5124667;27;45281;-69
2023/06/15 05:30:54;;;;;;;23.83;2.88;;;18.40;73.90;;;;;;5118265;27;45612;-69
2023/06/15 05:33:21;;;;;;;4.35;1.73;;;18.40;71.40;;;;;;5121394;27;45460;-69
2023/06/15 05:35:48;;;;;;;3.25;2.10;;;18.90;70.90;;;;;;5118387;27;45974;-70
2023/06/15 05:38:14;;;;;;;3.58;2.15;;;19.40;68.70;;;;;;5121480;27;45292;-68
2023/06/15 05:40:41;;;;;;;3.50;1.83;;;19.60;68.30;;;;;;5122499;27;45420;-68
2023/06/15 05:43:08;;;;;;;4.28;2.30;;;19.80;68.40;;;;;;5117291;27;47962;-69
2023/06/15 05:45:36;;;;;;;5.05;2.10;;;19.90;67.00;;;;;;5113862;27;45612;-68
2023/06/15 05:48:03;;;;;;;7.20;2.67;;;20.00;66.10;;;;;;5121271;27;45414;-69
2023/06/15 05:50:31;;;;;;;3.35;1.90;;;20.10;65.50;;;;;;5125278;27;45303;-68
2023/06/15 05:52:58;;;;;;;3.17;1.75;;;20.10;64.90;;;;;;5113265;27;47519;-68
2023/06/15 05:55:25;;;;;;;6.78;1.83;;;20.20;64.50;;;;;;5116699;27;45521;-68
2023/06/15 05:57:52;;;;;;;3.03;1.73;;;20.30;64.50;;;;;;5121279;27;45418;-69
2023/06/15 06:00:22;;;;;;;2.20;1.92;;;20.30;64.70;;;;;;5123192;27;45321;-68
2023/06/15 06:02:50;;;;;;;4.03;1.95;;;20.30;64.80;;;;;;5119329;27;47273;-71
2023/06/15 06:05:17;;;;;;;5.45;1.98;;;20.40;64.40;;;;;;5113439;27;45528;-68
2023/06/15 06:07:45;;;;;;;2.85;1.60;;;20.40;64.50;;;;;;5126314;27;45324;-67
2023/06/15 06:10:12;;;;;;;4.55;1.60;;;20.40;64.10;;;;;;5125745;27;45602;-69
2023/06/15 06:12:38;;;;;;;3.42;2.00;;;20.50;64.10;;;;;;5124518;27;46430;-68
2023/06/15 06:15:06;;;;;;;5.35;2.35;;;20.50;64.00;;;;;;5124256;27;45350;-68
2023/06/15 06:17:33;;;;;;;3.95;2.30;;;20.50;63.50;;;;;;5113619;27;45540;-68
2023/06/15 06:20:01;;;;;;;3.60;2.10;;;20.50;63.60;;;;;;5114236;27;45417;-69
2023/06/15 06:22:28;;;;;;;4.80;2.22;;;20.50;63.70;;;;;;5124863;27;45217;-68
2023/06/15 06:24:55;;;;;;;8.02;2.33;;;20.60;63.90;;;;;;5123782;27;45502;-69
2023/06/15 06:27:21;;;;;;;11.20;2.17;;;20.50;64.20;;;;;;5124020;27;45413;-69
2023/06/15 06:29:48;;;;;;;5.57;2.05;;;20.60;64.20;;;;;;5124219;27;45467;-69
2023/06/15 06:32:15;;;;;;;8.05;2.08;;;20.60;63.40;;;;;;5125326;27;45470;-69
2023/06/15 06:34:42;;;;;;;3.00;1.92;;;20.70;63.40;;;;;;5121043;27;45406;-68
2023/06/15 06:37:10;;;;;;;4.32;2.28;;;20.70;63.90;;;;;;5121286;27;45283;-69
2023/06/15 06:39:37;;;;;;;8.73;1.77;;;20.70;63.80;;;;;;5121864;27;45561;-69
2023/06/15 06:42:04;;;;;;;7.72;1.73;;;20.70;64.00;;;;;;5117444;27;48152;-68
2023/06/15 06:44:30;;;;;;;4.63;1.60;;;20.80;63.40;;;;;;5122681;27;45440;-69
2023/06/15 06:46:59;;;;;;;7.57;2.10;;;20.90;63.00;;;;;;5121243;27;45348;-69
2023/06/15 06:49:26;;;;;;;6.63;2.03;;;20.90;62.30;;;;;;5116840;27;45568;-69
2023/06/15 06:51:52;;;;;;;5.40;1.80;;;20.90;62.60;;;;;;5123175;27;47913;-69
2023/06/15 06:54:21;;;;;;;2.55;1.60;;;21.00;62.20;;;;;;5122748;27;45411;-69
2023/06/15 06:56:47;;;;;;;5.40;1.90;;;21.00;62.60;;;;;;5118663;27;45540;-69
2023/06/15 06:59:14;;;;;;;4.22;1.55;;;21.00;62.40;;;;;;5123019;27;45496;-69
2023/06/15 07:01:43;;;;;;;6.20;1.92;;;21.00;62.30;;;;;;5111033;27;46301;-69
2023/06/15 07:04:10;;;;;;;3.00;1.90;;;21.00;62.40;;;;;;5111071;27;45351;-69
2023/06/15 07:06:36;;;;;;;5.50;1.95;;;21.00;61.90;;;;;;5103286;27;45385;-69
2023/06/15 07:09:03;;;;;;;4.88;2.10;;;21.00;62.20;;;;;;5111705;27;45584;-69
2023/06/15 07:11:31;;;;;;;5.80;2.17;;;21.00;62.20;;;;;;5120373;27;46411;-69
2023/06/15 07:14:02;;;;;;;6.97;2.90;;;21.00;62.60;;;;;;5120714;27;45379;-69
2023/06/15 07:16:29;;;;;;;6.10;2.22;;;21.10;62.40;;;;;;5121659;27;45414;-69
2023/06/15 07:18:56;;;;;;;5.80;1.92;;;21.10;62.20;;;;;;5124325;27;45427;-69
2023/06/15 07:21:23;;;;;;;4.38;2.30;;;21.20;62.50;;;;;;5123074;27;47732;-69
2023/06/15 07:23:50;;;;;;;6.13;2.33;;;21.20;62.80;;;;;;5109684;27;45307;-70
2023/06/15 07:26:16;;;;;;;3.40;2.10;;;21.20;62.10;;;;;;5123729;27;45544;-69
2023/06/15 07:28:44;;;;;;;7.38;2.60;;;21.20;62.40;;;;;;5121780;27;45533;-69
2023/06/15 07:31:15;;;;;;;4.15;1.95;;;21.30;62.40;;;;;;5112173;27;46106;-69
2023/06/15 07:33:41;;;;;;;5.60;1.90;;;21.20;62.10;;;;;;5124817;27;45300;-69
2023/06/15 07:36:08;;;;;;;5.88;2.03;;;21.30;62.30;;;;;;5113287;27;45233;-69
2023/06/15 07:38:37;;;;;;;3.63;2.50;;;21.30;61.90;;;;;;5119482;27;45410;-69
2023/06/15 07:41:03;;;;;;;2.17;1.70;;;21.30;61.60;;;;;;5117826;27;46581;-68
2023/06/15 07:43:30;;;;;;;5.70;2.10;;;21.40;61.90;;;;;;5115905;27;45576;-69
2023/06/15 07:45:58;;;;;;;6.07;2.28;;;21.40;61.50;;;;;;5120745;27;45363;-69
2023/06/15 07:48:25;;;;;;;3.10;1.80;;;21.30;61.70;;;;;;5112798;27;45327;-69
2023/06/15 07:50:52;;;;;;;5.38;1.60;;;21.30;61.70;;;;;;5118282;27;45663;-68
2023/06/15 07:53:18;;;;;;;5.07;1.90;;;21.40;62.20;;;;;;5122857;27;45415;-69
2023/06/15 07:55:45;;;;;;;3.10;1.63;;;21.40;61.60;;;;;;5121366;27;45473;-69
2023/06/15 07:58:12;;;;;;;4.93;1.92;;;21.40;61.70;;;;;;5123372;27;45412;-69
2023/06/15 08:00:39;;;;;;;2.97;1.92;;;21.40;61.30;;;;;;5123376;27;45271;-69
2023/06/15 08:03:07;;;;;;;4.53;2.00;;;21.40;61.20;;;;;;5124131;27;45248;-68
2023/06/15 08:05:34;;;;;;;3.80;2.08;;;21.40;61.50;;;;;;5123920;27;45272;-70
2023/06/15 08:08:01;;;;;;;4.72;1.90;;;21.50;61.30;;;;;;5117181;27;45371;-69
2023/06/15 08:10:29;;;;;;;2.97;1.75;;;21.50;61.20;;;;;;5119862;27;48089;-70
2023/06/15 08:12:57;;;;;;;3.00;1.92;;;21.50;61.20;;;;;;5123406;27;45316;-69
2023/06/15 08:15:23;;;;;;;5.78;1.98;;;21.60;60.80;;;;;;5112430;27;45340;-69
2023/06/15 08:17:50;;;;;;;3.15;1.92;;;21.50;59.70;;;;;;5102033;27;45516;-69
2023/06/15 08:20:19;;;;;;;4.80;2.45;;;21.50;59.20;;;;;;5115137;27;45408;-69
2023/06/15 08:22:46;;;;;;;2.90;1.95;;;21.50;59.50;;;;;;5116590;27;45354;-69
2023/06/15 08:25:13;;;;;;;4.35;2.28;;;21.50;60.70;;;;;;5120415;27;45263;-69
2023/06/15 08:27:40;;;;;;;2.97;1.98;;;21.50;59.90;;;;;;5123504;27;45741;-69
2023/06/15 08:30:08;;;;;;;2.88;1.80;;;21.50;60.30;;;;;;5122407;27;46387;-69
2023/06/15 08:32:35;;;;;;;3.75;1.45;;;21.60;60.30;;;;;;5123479;27;45419;-69
2023/06/15 08:35:02;;;;;;;4.10;1.90;;;21.60;60.50;;;;;;5123867;27;45337;-69
2023/06/15 08:37:30;;;;;;;5.65;1.95;;;21.60;60.00;;;;;;5120820;27;45394;-69
2023/06/15 08:39:57;;;;;;;3.58;2.10;;;21.60;59.80;;;;;;5103071;27;45316;-69
2023/06/15 08:42:25;;;;;;;3.28;1.50;;;21.70;59.30;;;;;;5112717;27;45524;-70
2023/06/15 08:44:55;;;;;;;4.10;2.17;;;21.70;59.70;;;;;;5115640;27;45425;-69
2023/06/15 08:47:22;;;;;;;3.15;1.90;;;21.70;58.50;;;;;;5109565;27;45387;-69
2023/06/15 08:49:49;;;;;;;3.58;1.65;;;21.70;59.60;;;;;;5107905;27;47738;-70
2023/06/15 08:52:20;;;;;;;5.13;2.05;;;21.70;58.60;;;;;;5105693;27;45324;-68
2023/06/15 08:54:52;;;;;;;3.20;1.90;;;21.70;58.80;;;;;;5123861;27;45394;-69
2023/06/15 08:57:20;;;;;;;5.25;2.00;;;21.70;60.00;;;;;;5114395;27;45448;-69
2023/06/15 08:59:46;;;;;;;8.63;1.63;;;21.70;59.00;;;;;;5109775;27;47624;-68
2023/06/15 09:02:22;;;;;;;7.03;2.45;;;21.70;59.10;;;;;;5110377;27;45326;-69
2023/06/15 09:04:50;;;;;;;3.13;1.90;;;21.80;59.00;;;;;;5122343;27;45304;-69
2023/06/15 09:07:18;;;;;;;8.80;2.30;;;21.80;58.50;;;;;;5114573;27;45525;-69
2023/06/15 09:10:15;;;;;;;6.93;2.60;;;21.80;59.20;;;;;;5124325;27;45415;-69
2023/06/15 09:12:43;;;;;;;4.50;1.85;;;21.80;57.60;;;;;;5107837;27;45360;-69
2023/06/15 09:15:12;;;;;;;3.08;1.60;;;21.80;59.10;;;;;;5119161;27;45398;-69
2023/06/15 09:17:41;;;;;;;7.40;1.80;;;21.80;58.40;;;;;;5122632;27;45746;-69
2023/06/15 09:20:10;;;;;;;5.65;1.70;;;21.80;58.50;;;;;;5121914;27;47441;-69
2023/06/15 09:22:42;;;;;;;2.70;1.60;;;21.80;58.80;;;;;;5114360;27;45424;-69
2023/06/15 09:25:20;;;;;;;4.25;1.67;;;21.80;58.60;;;;;;5108393;27;45357;-69
2023/06/15 09:27:57;;;;;;;5.30;1.95;;;21.80;58.20;;;;;;5102584;27;45368;-69
2023/06/15 09:30:30;;;;;;;4.78;1.90;;;21.90;56.60;;;;;;5113982;27;47297;-69
2023/06/15 09:32:58;;;;;;;6.28;2.40;;;21.90;56.10;;;;;;5120403;27;45388;-70
2023/06/15 09:35:25;;;;;;;7.38;1.90;;;21.90;56.10;;;;;;5123926;27;45523;-68
2023/06/15 09:37:53;;;;;;;2.38;1.67;;;22.00;56.10;;;;;;5125985;27;45360;-69
2023/06/15 09:40:24;;;;;;;3.72;1.58;;;21.90;56.60;;;;;;5119312;27;45467;-69
2023/06/15 09:42:51;;;;;;;4.47;1.83;;;21.90;57.90;;;;;;5111217;27;45809;-68
2023/06/15 09:45:18;;;;;;;3.47;2.30;;;22.00;56.20;;;;;;5125879;27;45435;-69
2023/06/15 09:47:45;;;;;;;3.17;1.48;;;21.90;56.70;;;;;;5125268;27;45285;-69
2023/06/15 09:50:12;;;;;;;9.18;2.22;;;22.00;58.10;;;;;;5116505;27;46411;-70
2023/06/15 09:52:43;;;;;;;3.97;1.77;;;21.90;56.60;;;;;;5107931;27;45631;-69
2023/06/15 09:55:11;;;;;;;4.88;1.70;;;22.00;56.80;;;;;;5113910;27;45436;-69
2023/06/15 09:57:41;;;;;;;3.10;1.77;;;22.00;54.00;;;;;;5117817;27;45311;-69
2023/06/15 10:00:10;;;;;;;7.05;2.50;;;22.00;54.40;;;;;;5124047;27;48484;-69
2023/06/15 10:02:39;;;;;;;5.60;2.10;;;22.10;53.00;;;;;;5108816;27;45348;-69
2023/06/15 10:05:12;;;;;;;10.10;2.10;;;22.10;52.50;;;;;;5121929;27;45472;-68
2023/06/15 10:07:40;;;;;;;4.65;2.28;;;22.00;54.40;;;;;;5105287;27;45661;-69
2023/06/15 10:10:09;;;;;;;4.03;2.00;;;22.00;54.60;;;;;;5113090;27;46075;-69
2023/06/15 10:12:40;;;;;;;5.45;2.38;;;22.00;53.50;;;;;;5110484;27;45283;-69
2023/06/15 10:15:12;;;;;;;3.90;2.10;;;22.00;52.00;;;;;;5113966;27;45354;-69
2023/06/15 10:17:41;;;;;;;5.55;2.63;;;22.00;52.90;;;;;;5109290;27;45292;-69
2023/06/15 10:20:16;;;;;;;6.43;2.30;;;22.00;52.70;;;;;;5125288;27;47568;-69
2023/06/15 10:22:49;;;;;;;5.70;2.20;;;22.00;52.90;;;;;;5105392;27;45366;-70
2023/06/15 10:25:18;;;;;;;3.65;1.90;;;22.00;52.80;;;;;;5113047;27;45433;-69
2023/06/15 10:27:46;;;;;;;4.28;2.00;;;22.00;51.20;;;;;;5122432;27;45593;-69
2023/06/15 10:30:21;;;;;;;4.60;2.00;;;22.00;56.20;;;;;;5114533;27;47078;-70
2023/06/15 10:32:54;;;;;;;6.07;2.33;;;21.90;54.80;;;;;;5121791;27;45205;-69
2023/06/15 10:35:28;;;;;;;8.82;2.40;;;22.00;54.40;;;;;;5122799;27;45382;-70
2023/06/15 10:38:05;;;;;;;4.68;2.20;;;22.10;51.70;;;;;;5118929;27;45444;-68
2023/06/15 10:40:37;;;;;;;9.48;2.75;;;22.20;51.50;;;;;;5122731;27;48276;-69
2023/06/15 10:43:05;;;;;;;8.27;2.38;;;22.20;51.00;;;;;;5111463;27;45268;-69
2023/06/15 10:45:34;;;;;;;6.93;2.67;;;22.20;52.80;;;;;;5115407;27;45479;-68
2023/06/15 10:48:02;;;;;;;4.28;2.38;;;22.20;51.40;;;;;;5119594;27;45341;-69
2023/06/15 10:50:38;;;;;;;5.13;2.53;;;22.30;51.50;;;;;;5114988;27;47701;-69
2023/06/15 10:53:05;;;;;;;7.20;2.05;;;22.30;53.30;;;;;;5122971;27;45352;-68
2023/06/15 10:55:32;;;;;;;5.72;2.10;;;22.20;52.50;;;;;;5108570;27;45362;-68
2023/06/15 10:58:16;;;;;;;7.63;2.30;;;22.20;52.20;;;;;;5125058;27;45358;-68
2023/06/15 11:00:44;;;;;;;4.43;1.92;;;22.20;51.40;;;;;;5119268;27;45232;-68
2023/06/15 11:03:26;;;;;;;6.00;2.13;;;22.20;53.60;;;;;;5120382;27;45425;-68
2023/06/15 11:06:15;;;;;;;12.43;2.47;;;22.10;53.90;;;;;;5110186;27;45228;-69
2023/06/15 11:08:47;;;;;;;5.20;2.38;;;22.10;53.90;;;;;;5114166;27;45351;-69
2023/06/15 11:11:15;;;;;;;7.07;2.33;;;22.20;52.90;;;;;;5123580;27;45431;-68
2023/06/15 11:14:02;;;;;;;4.50;2.15;;;22.20;51.50;;;;;;5122488;27;46242;-70
2023/06/15 11:16:31;;;;;;;4.40;1.77;;;22.10;53.60;;;;;;5117205;27;45441;-68
2023/06/15 11:19:24;;;;;;;2.42;1.98;;;22.10;56.30;;;;;;5120832;27;45600;-68
2023/06/15 11:21:59;;;;;;;4.88;1.92;;;22.10;56.30;;;;;;5118505;27;46241;-69
2023/06/15 11:24:26;;;;;;;3.05;1.75;;;22.10;55.60;;;;;;5118590;27;46355;-69
2023/06/15 11:26:55;;;;;;;9.13;2.45;;;22.10;54.60;;;;;;5119041;27;45306;-68
2023/06/15 11:29:25;;;;;;;4.85;2.42;;;22.10;51.80;;;;;;5113508;27;45277;-69
2023/06/15 11:31:52;;;;;;;2.55;1.80;;;22.10;54.50;;;;;;5122527;27;47678;-68
2023/06/15 11:34:19;;;;;;;5.22;2.60;;;22.10;52.10;;;;;;5121192;27;45446;-69
2023/06/15 11:36:47;;;;;;;4.30;2.25;;;22.10;47.80;;;;;;5120992;27;45584;-70
2023/06/15 11:39:21;;;;;;;7.70;1.83;;;22.10;49.20;;;;;;5113104;27;45781;-69
2023/06/15 11:41:49;;;;;;;6.90;2.22;;;22.10;54.60;;;;;;5120217;27;47464;-68
2023/06/15 11:44:16;;;;;;;3.70;2.00;;;22.10;53.80;;;;;;5122331;27;45473;-68
2023/06/15 11:46:53;;;;;;;3.28;2.25;;;22.10;54.60;;;;;;5117071;27;45313;-68
2023/06/15 11:49:19;;;;;;;3.90;2.10;;;22.10;50.30;;;;;;5116940;27;45526;-68
2023/06/15 11:51:47;;;;;;;4.75;1.90;;;22.10;55.80;;;;;;5111779;27;47093;-68
2023/06/15 11:54:15;;;;;;;6.60;2.20;;;21.90;55.20;;;;;;5116637;27;45318;-68
2023/06/15 11:56:44;;;;;;;3.40;1.80;;;21.90;54.40;;;;;;5124444;27;45329;-69
2023/06/15 11:59:13;;;;;;;4.13;2.10;;;21.80;54.10;;;;;;5123997;27;45314;-68
2023/06/15 12:01:40;;;;;;;3.28;2.05;;;21.80;55.30;;;;;;5113486;27;46328;-68
2023/06/15 12:04:13;;;;;;;4.32;2.00;;;21.70;54.80;;;;;;5110334;27;45953;-68
2023/06/15 12:06:40;;;;;;;3.25;2.22;;;21.80;53.70;;;;;;5123084;27;45346;-68
2023/06/15 12:09:08;;;;;;;2.20;1.58;;;21.70;54.00;;;;;;5122737;27;45569;-68
2023/06/15 12:11:35;;;;;;;6.25;2.70;;;21.80;54.60;;;;;;5111262;27;47451;-69
2023/06/15 12:14:03;;;;;;;5.97;2.25;;;21.80;50.00;;;;;;5119312;27;46007;-69
2023/06/15 12:16:30;;;;;;;4.60;2.20;;;21.90;48.20;;;;;;5112588;27;45355;-68
2023/06/15 12:18:59;;;;;;;5.38;1.90;;;22.00;54.40;;;;;;5118467;27;45339;-67
2023/06/15 12:21:30;;;;;;;4.70;1.85;;;22.00;54.80;;;;;;5118828;27;46585;-68
2023/06/15 12:23:57;;;;;;;3.10;1.98;;;22.00;55.00;;;;;;5117825;27;45235;-67
2023/06/15 12:26:31;;;;;;;3.63;1.80;;;22.00;51.70;;;;;;5116145;27;45394;-68
2023/06/15 12:28:58;;;;;;;4.40;1.60;;;22.00;54.40;;;;;;5120068;27;45304;-68
2023/06/15 12:31:33;;;;;;;4.65;1.75;;;22.10;54.50;;;;;;5112307;27;48417;-68
2023/06/15 12:34:06;;;;;;;1.92;1.30;;;22.10;54.80;;;;;;5121710;27;45437;-68
2023/06/15 12:36:35;;;;;;;5.20;1.90;;;22.10;54.80;;;;;;5121237;27;45385;-68
2023/06/15 12:39:05;;;;;;;5.22;2.17;;;22.10;52.40;;;;;;5120637;27;45507;-68
2023/06/15 12:41:32;;;;;;;4.53;1.85;;;22.10;53.80;;;;;;5116356;27;47130;-68
2023/06/15 12:43:59;;;;;;;2.88;1.55;;;22.10;54.80;;;;;;5117503;27;45599;-68
2023/06/15 12:46:26;;;;;;;3.90;1.60;;;22.10;55.90;;;;;;5117866;27;45333;-64
2023/06/15 12:48:52;;;;;;;6.50;2.30;;;22.10;56.30;;;;;;5121396;27;45565;-67
2023/06/15 12:51:19;;;;;;;3.65;1.60;;;22.10;56.50;;;;;;5114448;27;46251;-68